createdAt,value
2023-05-12T00:00:08.292Z,12.51
2023-05-12T00:01:13.095Z,12.52
2023-05-12T00:02:16.976Z,12.55
2023-05-12T00:03:21.624Z,12.53
2023-05-12T00:04:23.371Z,12.45
2023-05-12T00:05:23.718Z,12.49
2023-05-12T00:06:31.095Z,12.47
2023-05-12T00:07:35.497Z,12.48
2023-05-12T00:08:37.499Z,12.44
2023-05-12T00:09:39.959Z,12.46
2023-05-12T00:10:41.933Z,12.40
2023-05-12T00:11:49.756Z,12.35
2023-05-12T00:12:53.809Z,12.35
2023-05-12T00:13:55.829Z,12.29
2023-05-12T00:15:02.992Z,12.21
2023-05-12T00:16:07.848Z,12.27
2023-05-12T00:17:11.895Z,12.30
2023-05-12T00:18:16.194Z,12.33
2023-05-12T00:19:20.978Z,12.35
2023-05-12T00:20:22.762Z,12.27
2023-05-12T00:21:27.641Z,12.21
2023-05-12T00:22:34.973Z,12.14
2023-05-12T00:23:37.617Z,12.11
2023-05-12T00:24:41.044Z,12.09
2023-05-12T00:25:41.627Z,12.13
2023-05-12T00:26:46.928Z,12.20
2023-05-12T00:27:51.948Z,12.15
2023-05-12T00:28:56.647Z,12.23
2023-05-12T00:30:01.634Z,12.26
2023-05-12T00:31:10.644Z,12.33
2023-05-12T00:32:08.940Z,12.37
2023-05-12T00:33:11.353Z,12.36
2023-05-12T00:34:11.130Z,12.40
2023-05-12T00:35:15.869Z,12.43
2023-05-12T00:36:20.792Z,12.45
2023-05-12T00:37:21.071Z,12.47
2023-05-12T00:38:20.236Z,12.49
2023-05-12T00:39:27.527Z,12.51
2023-05-12T00:40:29.678Z,12.53
2023-05-12T00:41:38.450Z,12.53
2023-05-12T00:42:38.496Z,12.54
2023-05-12T00:43:34.955Z,12.55
2023-05-12T00:44:39.652Z,12.57
2023-05-12T00:45:47.242Z,12.58
2023-05-12T00:46:51.809Z,12.57
2023-05-12T00:47:55.706Z,12.49
2023-05-12T00:49:00.229Z,12.44
2023-05-12T00:50:05.029Z,12.39
2023-05-12T00:51:08.955Z,12.39
2023-05-12T00:52:17.268Z,12.36
2023-05-12T00:53:12.852Z,12.35
2023-05-12T00:54:20.289Z,12.35
2023-05-12T00:55:20.826Z,12.31
2023-05-12T00:56:22.644Z,12.35
2023-05-12T00:57:25.351Z,12.37
2023-05-12T00:58:27.156Z,12.37
2023-05-12T00:59:31.916Z,12.40
2023-05-12T01:00:32.699Z,12.39
2023-05-12T01:01:32.197Z,12.40
2023-05-12T01:02:42.429Z,12.40
2023-05-12T01:03:40.271Z,12.43
2023-05-12T01:04:42.160Z,12.43
2023-05-12T01:05:44.853Z,12.42
2023-05-12T01:06:46.764Z,12.45
2023-05-12T01:07:54.120Z,12.41
2023-05-12T01:08:58.669Z,12.42
2023-05-12T01:10:03.270Z,12.43
2023-05-12T01:11:07.071Z,12.42
2023-05-12T01:12:11.687Z,12.39
2023-05-12T01:13:16.455Z,12.38
2023-05-12T01:14:20.289Z,12.40
2023-05-12T01:15:25.253Z,12.40
2023-05-12T01:16:29.307Z,12.42
2023-05-12T01:17:34.455Z,12.37
2023-05-12T01:18:38.492Z,12.40
2023-05-12T01:19:42.979Z,12.39
2023-05-12T01:20:47.331Z,12.39
2023-05-12T01:21:49.317Z,12.40
2023-05-12T01:22:56.492Z,12.39
2023-05-12T01:24:01.220Z,12.39
2023-05-12T01:25:02.307Z,12.38
2023-05-12T01:26:07.068Z,12.39
2023-05-12T01:27:10.914Z,12.42
2023-05-12T01:28:15.517Z,12.41
2023-05-12T01:29:19.831Z,12.37
2023-05-12T01:30:22.037Z,12.38
2023-05-12T01:31:21.905Z,12.36
2023-05-12T01:32:29.063Z,12.32
2023-05-12T01:33:33.492Z,12.29
2023-05-12T01:34:36.222Z,12.30
2023-05-12T01:35:38.131Z,12.31
2023-05-12T01:36:45.785Z,12.31
2023-05-12T01:37:50.258Z,12.37
2023-05-12T01:38:52.182Z,12.35
2023-05-12T01:39:52.273Z,12.36
2023-05-12T01:40:52.565Z,12.37
2023-05-12T01:41:55.471Z,12.36
2023-05-12T01:42:59.700Z,12.34
2023-05-12T01:44:01.937Z,12.26
2023-05-12T01:45:06.093Z,12.26
2023-05-12T01:46:09.223Z,12.32
2023-05-12T01:47:09.799Z,12.27
2023-05-12T01:48:20.273Z,12.30
2023-05-12T01:49:10.962Z,12.31
2023-05-12T01:50:20.840Z,12.31
2023-05-12T01:51:12.144Z,12.33
2023-05-12T01:52:21.265Z,12.34
2023-05-12T01:53:17.785Z,12.31
2023-05-12T01:54:22.689Z,12.33
2023-05-12T01:55:23.227Z,12.34
2023-05-12T01:56:31.274Z,12.30
2023-05-12T01:57:33.017Z,12.30
2023-05-12T01:58:37.966Z,12.29
2023-05-12T01:59:42.363Z,12.30
2023-05-12T02:00:39.314Z,12.30
2023-05-12T02:01:41.323Z,12.30
2023-05-12T02:02:43.026Z,12.31
2023-05-12T02:03:48.408Z,12.33
2023-05-12T02:04:48.000Z,12.31
2023-05-12T02:05:52.722Z,12.31
2023-05-12T02:06:57.641Z,12.31
2023-05-12T02:08:02.649Z,12.29
2023-05-12T02:09:05.079Z,12.30
2023-05-12T02:10:13.260Z,12.31
2023-05-12T02:11:09.946Z,12.31
2023-05-12T02:12:17.272Z,12.25
2023-05-12T02:13:21.596Z,12.24
2023-05-12T02:14:23.734Z,12.26
2023-05-12T02:15:32.269Z,12.26
2023-05-12T02:16:31.901Z,12.29
2023-05-12T02:17:36.033Z,12.30
2023-05-12T02:18:40.559Z,12.32
2023-05-12T02:19:45.029Z,12.29
2023-05-12T02:20:46.740Z,12.31
2023-05-12T02:21:46.999Z,12.31
2023-05-12T02:22:54.091Z,12.34
2023-05-12T02:23:58.918Z,12.36
2023-05-12T02:24:57.202Z,12.37
2023-05-12T02:26:02.259Z,12.35
2023-05-12T02:27:09.608Z,12.33
2023-05-12T02:28:13.953Z,12.34
2023-05-12T02:29:15.877Z,12.35
2023-05-12T02:30:25.872Z,12.35
2023-05-12T02:31:25.439Z,12.37
2023-05-12T02:32:30.358Z,12.36
2023-05-12T02:33:37.869Z,12.33
2023-05-12T02:34:39.626Z,12.34
2023-05-12T02:35:46.331Z,12.35
2023-05-12T02:36:46.400Z,12.36
2023-05-12T02:37:51.324Z,12.37
2023-05-12T02:38:54.274Z,12.39
2023-05-12T02:39:58.664Z,12.38
2023-05-12T02:41:00.379Z,12.38
2023-05-12T02:42:07.950Z,12.39
2023-05-12T02:43:10.737Z,12.36
2023-05-12T02:44:13.475Z,12.37
2023-05-12T02:45:15.421Z,12.36
2023-05-12T02:46:23.054Z,12.37
2023-05-12T02:47:27.116Z,12.39
2023-05-12T02:48:34.591Z,12.37
2023-05-12T02:49:32.650Z,12.36
2023-05-12T02:50:37.187Z,12.33
2023-05-12T02:51:41.711Z,12.35
2023-05-12T02:52:43.771Z,12.32
2023-05-12T02:53:43.416Z,12.31
2023-05-12T02:54:43.506Z,12.29
2023-05-12T02:55:45.138Z,12.31
2023-05-12T02:56:45.808Z,12.31
2023-05-12T02:57:46.162Z,12.33
2023-05-12T02:58:54.015Z,12.33
2023-05-12T02:59:58.788Z,12.29
2023-05-12T03:01:10.569Z,12.30
2023-05-12T03:02:08.401Z,12.29
2023-05-12T03:03:08.045Z,12.27
2023-05-12T03:04:12.150Z,12.28
2023-05-12T03:05:14.101Z,12.27
2023-05-12T03:06:17.020Z,12.26
2023-05-12T03:07:22.346Z,12.25
2023-05-12T03:08:22.819Z,12.23
2023-05-12T03:09:25.520Z,12.26
2023-05-12T03:10:31.555Z,12.24
2023-05-12T03:11:29.709Z,12.23
2023-05-12T03:12:32.067Z,12.22
2023-05-12T03:13:36.359Z,12.22
2023-05-12T03:14:38.254Z,12.22
2023-05-12T03:15:41.089Z,12.21
2023-05-12T03:16:46.319Z,12.19
2023-05-12T03:17:50.896Z,12.17
2023-05-12T03:18:55.697Z,12.13
2023-05-12T03:20:00.333Z,12.13
2023-05-12T03:21:06.451Z,12.10
2023-05-12T03:22:12.241Z,12.13
2023-05-12T03:23:05.829Z,12.10
2023-05-12T03:24:13.443Z,12.09
2023-05-12T03:25:13.455Z,12.07
2023-05-12T03:26:15.945Z,12.08
2023-05-12T03:27:17.902Z,12.05
2023-05-12T03:28:17.987Z,12.01
2023-05-12T03:29:19.837Z,12.01
2023-05-12T03:30:21.076Z,12.01
2023-05-12T03:31:21.324Z,11.98
2023-05-12T03:32:21.603Z,11.94
2023-05-12T03:33:23.325Z,11.94
2023-05-12T03:34:26.581Z,11.95
2023-05-12T03:35:36.554Z,11.93
2023-05-12T03:36:38.352Z,11.89
2023-05-12T03:37:37.531Z,11.85
2023-05-12T03:38:42.709Z,11.86
2023-05-12T03:39:43.815Z,11.86
2023-05-12T03:40:44.875Z,11.84
2023-05-12T03:41:45.819Z,11.84
2023-05-12T03:42:45.503Z,11.84
2023-05-12T03:44:00.410Z,11.82
2023-05-12T03:44:46.447Z,11.82
2023-05-12T03:45:46.961Z,11.82
2023-05-12T03:46:51.234Z,11.83
2023-05-12T03:47:51.832Z,11.79
2023-05-12T03:48:52.833Z,11.76
2023-05-12T03:49:53.369Z,11.72
2023-05-12T03:50:53.656Z,11.73
2023-05-12T03:51:53.970Z,11.68
2023-05-12T03:53:02.864Z,11.71
2023-05-12T03:54:11.351Z,11.71
2023-05-12T03:55:06.954Z,11.68
2023-05-12T03:56:09.031Z,11.71
2023-05-12T03:57:09.833Z,11.71
2023-05-12T04:00:14.440Z,11.75
2023-05-12T04:01:20.887Z,11.77
2023-05-12T04:02:20.466Z,11.77
2023-05-12T04:03:21.579Z,11.79
2023-05-12T04:04:23.563Z,11.80
2023-05-12T04:05:25.756Z,11.83
2023-05-12T04:06:31.819Z,11.85
2023-05-12T04:07:35.105Z,11.89
2023-05-12T04:08:32.118Z,11.93
2023-05-12T04:09:44.807Z,11.96
2023-05-12T04:10:41.521Z,11.98
2023-05-12T04:11:52.375Z,12.00
2023-05-12T04:12:48.883Z,12.01
2023-05-12T04:13:54.251Z,12.06
2023-05-12T04:14:54.536Z,12.08
2023-05-12T04:15:59.340Z,12.10
2023-05-12T04:17:04.011Z,12.14
2023-05-12T04:18:09.025Z,12.17
2023-05-12T04:19:09.358Z,12.17
2023-05-12T04:20:09.608Z,12.20
2023-05-12T04:21:18.468Z,12.23
2023-05-12T04:22:19.218Z,12.25
2023-05-12T04:23:12.733Z,12.30
2023-05-12T04:24:18.091Z,12.29
2023-05-12T04:25:16.539Z,12.33
2023-05-12T04:26:24.053Z,12.35
2023-05-12T04:27:27.896Z,12.34
2023-05-12T04:28:34.362Z,12.35
2023-05-12T04:29:30.277Z,12.37
2023-05-12T04:30:39.484Z,12.39
2023-05-12T04:31:39.075Z,12.43
2023-05-12T04:32:43.749Z,12.40
2023-05-12T04:33:48.562Z,12.41
2023-05-12T04:34:52.217Z,12.43
2023-05-12T04:35:54.191Z,12.43
2023-05-12T04:37:01.284Z,12.46
2023-05-12T04:38:03.242Z,12.46
2023-05-12T04:39:10.587Z,12.47
2023-05-12T04:40:15.449Z,12.51
2023-05-12T04:41:19.505Z,12.49
2023-05-12T04:42:24.085Z,12.51
2023-05-12T04:44:34.156Z,12.61
2023-05-12T04:45:34.558Z,12.68
2023-05-12T04:46:34.514Z,12.68
2023-05-12T04:47:34.061Z,12.70
2023-05-12T04:48:39.159Z,12.78
2023-05-12T04:49:38.600Z,12.83
2023-05-12T04:50:40.961Z,12.88
2023-05-12T04:51:45.056Z,12.93
2023-05-12T04:52:49.398Z,13.03
2023-05-12T04:53:54.183Z,13.13
2023-05-12T04:54:58.335Z,13.20
2023-05-12T04:56:02.762Z,13.25
2023-05-12T04:56:59.376Z,13.33
2023-05-12T04:58:09.741Z,13.47
2023-05-12T04:59:09.168Z,13.54
2023-05-12T05:00:14.019Z,13.63
2023-05-12T05:01:15.702Z,13.72
2023-05-12T05:02:23.103Z,13.82
2023-05-12T05:03:28.528Z,13.84
2023-05-12T05:04:25.102Z,13.87
2023-05-12T05:05:27.544Z,14.08
2023-05-12T05:06:32.575Z,14.12
2023-05-12T05:07:40.203Z,14.18
2023-05-12T05:08:37.129Z,14.18
2023-05-12T05:09:37.229Z,14.27
2023-05-12T05:10:43.923Z,14.14
2023-05-12T05:11:46.459Z,14.16
2023-05-12T05:12:48.423Z,14.14
2023-05-12T05:13:54.893Z,14.10
2023-05-12T05:14:58.048Z,14.12
2023-05-12T05:16:08.493Z,14.14
2023-05-12T05:17:05.800Z,14.17
2023-05-12T05:18:07.282Z,14.17
2023-05-12T05:19:19.230Z,14.14
2023-05-12T05:20:15.068Z,14.14
2023-05-12T05:21:15.172Z,14.09
2023-05-12T05:22:19.749Z,14.07
2023-05-12T05:23:23.476Z,13.97
2023-05-12T05:24:25.668Z,13.97
2023-05-12T05:25:26.242Z,13.95
2023-05-12T05:26:33.608Z,13.98
2023-05-12T05:27:35.337Z,13.93
2023-05-12T05:28:40.166Z,13.96
2023-05-12T05:29:44.940Z,13.92
2023-05-12T05:30:53.467Z,13.85
2023-05-12T05:31:50.195Z,13.83
2023-05-12T05:32:57.672Z,13.84
2023-05-12T05:34:02.009Z,13.79
2023-05-12T05:35:04.167Z,13.68
2023-05-12T05:36:14.364Z,13.64
2023-05-12T05:37:14.078Z,13.63
2023-05-12T05:38:18.798Z,13.49
2023-05-12T05:39:19.118Z,13.39
2023-05-12T05:40:22.491Z,13.44
2023-05-12T05:41:23.109Z,13.43
2023-05-12T05:42:26.916Z,13.41
2023-05-12T05:43:28.893Z,13.29
2023-05-12T05:44:28.947Z,13.31
2023-05-12T05:45:33.899Z,13.32
2023-05-12T05:46:41.283Z,13.27
2023-05-12T05:47:45.412Z,13.31
2023-05-12T05:48:49.716Z,13.31
2023-05-12T05:49:54.213Z,13.32
2023-05-12T05:50:56.213Z,13.31
2023-05-12T05:52:04.006Z,13.36
2023-05-12T05:53:08.102Z,13.38
2023-05-12T05:54:12.651Z,13.31
2023-05-12T05:55:13.827Z,13.27
2023-05-12T05:56:18.167Z,13.30
2023-05-12T05:57:22.521Z,13.35
2023-05-12T05:58:26.798Z,13.43
2023-05-12T05:59:31.286Z,13.49
2023-05-12T06:00:35.775Z,13.51
2023-05-12T06:01:40.844Z,13.65
2023-05-12T06:02:42.544Z,13.72
2023-05-12T06:03:50.202Z,13.84
2023-05-12T06:04:54.468Z,13.90
2023-05-12T06:05:56.175Z,13.95
2023-05-12T06:07:03.979Z,14.00
2023-05-12T06:08:05.931Z,14.09
2023-05-12T06:09:06.914Z,14.16
2023-05-12T06:10:08.825Z,14.32
2023-05-12T06:11:13.420Z,14.50
2023-05-12T06:12:17.518Z,14.76
2023-05-12T06:13:22.242Z,15.21
2023-05-12T06:14:27.098Z,15.61
2023-05-12T06:15:31.907Z,15.99
2023-05-12T06:16:35.800Z,16.21
2023-05-12T06:17:39.141Z,16.12
2023-05-12T06:18:41.488Z,16.13
2023-05-12T06:19:45.976Z,16.06
2023-05-12T06:20:50.327Z,16.01
2023-05-12T06:21:52.046Z,16.01
2023-05-12T06:22:59.348Z,15.89
2023-05-12T06:24:01.296Z,15.90
2023-05-12T06:25:08.478Z,15.77
2023-05-12T06:26:09.050Z,15.81
2023-05-12T06:27:13.129Z,15.79
2023-05-12T06:28:19.473Z,15.82
2023-05-12T06:29:17.575Z,15.86
2023-05-12T06:30:21.916Z,15.93
2023-05-12T06:31:26.039Z,16.00
2023-05-12T06:32:30.351Z,15.95
2023-05-12T06:33:34.948Z,16.01
2023-05-12T06:34:39.539Z,16.10
2023-05-12T06:35:43.554Z,16.04
2023-05-12T06:36:48.148Z,15.92
2023-05-12T06:37:52.728Z,15.99
2023-05-12T06:38:54.225Z,16.04
2023-05-12T06:40:01.590Z,16.13
2023-05-12T06:41:05.684Z,16.20
2023-05-12T06:42:09.224Z,16.21
2023-05-12T06:43:14.581Z,16.35
2023-05-12T06:44:18.938Z,16.47
2023-05-12T06:45:23.055Z,16.60
2023-05-12T06:46:27.926Z,16.66
2023-05-12T06:47:31.976Z,16.77
2023-05-12T06:48:36.012Z,16.63
2023-05-12T06:49:40.356Z,16.86
2023-05-12T06:50:44.693Z,17.05
2023-05-12T06:51:49.051Z,17.20
2023-05-12T06:52:53.414Z,17.39
2023-05-12T06:53:57.729Z,17.26
2023-05-12T06:55:02.603Z,17.39
2023-05-12T06:56:02.433Z,17.60
2023-05-12T06:57:06.516Z,17.57
2023-05-12T06:58:11.374Z,17.79
2023-05-12T06:59:15.442Z,17.90
2023-05-12T07:00:20.301Z,18.07
2023-05-12T07:01:24.674Z,18.33
2023-05-12T07:02:29.061Z,18.58
2023-05-12T07:03:33.326Z,18.88
2023-05-12T07:04:37.681Z,18.74
2023-05-12T07:05:42.359Z,18.62
2023-05-12T07:06:46.629Z,18.45
2023-05-12T07:07:51.218Z,18.56
2023-05-12T07:08:55.015Z,18.32
2023-05-12T07:09:59.354Z,18.28
2023-05-12T07:11:03.703Z,18.39
2023-05-12T07:12:09.026Z,18.51
2023-05-12T07:13:08.161Z,18.64
2023-05-12T07:14:12.493Z,18.23
2023-05-12T07:15:16.833Z,18.43
2023-05-12T07:16:21.207Z,18.41
2023-05-12T07:17:26.257Z,18.38
2023-05-12T07:18:31.985Z,18.37
2023-05-12T07:19:35.074Z,18.44
2023-05-12T07:20:39.423Z,18.44
2023-05-12T07:21:43.487Z,18.26
2023-05-12T07:22:48.176Z,18.24
2023-05-12T07:23:52.192Z,17.95
2023-05-12T07:24:57.235Z,17.95
2023-05-12T07:25:57.081Z,17.97
2023-05-12T07:27:01.161Z,18.01
2023-05-12T07:28:06.308Z,18.07
2023-05-12T07:29:12.869Z,17.96
2023-05-12T07:30:15.242Z,17.98
2023-05-12T07:31:19.631Z,17.99
2023-05-12T07:32:23.925Z,17.83
2023-05-12T07:33:28.005Z,17.99
2023-05-12T07:34:32.378Z,18.04
2023-05-12T07:35:34.325Z,18.24
2023-05-12T07:36:41.423Z,18.19
2023-05-12T07:37:46.002Z,18.49
2023-05-12T07:38:50.618Z,18.81
2023-05-12T07:39:54.429Z,18.71
2023-05-12T07:40:58.782Z,19.02
2023-05-12T07:42:03.365Z,19.14
2023-05-12T07:43:07.733Z,19.28
2023-05-12T07:44:12.056Z,19.26
2023-05-12T07:45:16.201Z,19.48
2023-05-12T07:46:21.067Z,19.59
2023-05-12T07:47:25.363Z,19.83
2023-05-12T07:48:29.393Z,20.23
2023-05-12T07:49:33.526Z,20.33
2023-05-12T07:50:38.138Z,20.45
2023-05-12T07:51:42.192Z,20.62
2023-05-12T07:52:46.783Z,20.96
2023-05-12T07:53:48.710Z,21.03
2023-05-12T07:54:55.783Z,21.03
2023-05-12T07:55:59.227Z,21.25
2023-05-12T07:57:03.821Z,21.23
2023-05-12T07:58:10.948Z,21.15
2023-05-12T07:59:20.489Z,21.42
2023-05-12T08:00:14.991Z,21.42
2023-05-12T08:01:16.038Z,21.70
2023-05-12T08:02:18.805Z,21.98
2023-05-12T08:03:19.845Z,21.97
2023-05-12T08:04:24.926Z,22.45
2023-05-12T08:05:34.022Z,23.09
2023-05-12T08:06:34.309Z,23.88
2023-05-12T08:07:46.042Z,24.49
2023-05-12T08:08:42.246Z,24.67
2023-05-12T08:09:43.897Z,24.92
2023-05-12T08:10:46.335Z,25.13
2023-05-12T08:11:51.596Z,25.27
2023-05-12T08:12:56.210Z,25.48
2023-05-12T08:13:57.411Z,25.65
2023-05-12T08:15:05.620Z,25.98
2023-05-12T08:16:07.583Z,25.91
2023-05-12T08:17:09.699Z,26.32
2023-05-12T08:18:12.431Z,26.61
2023-05-12T08:19:14.164Z,26.46
2023-05-12T08:20:22.357Z,25.81
2023-05-12T08:21:21.934Z,26.21
2023-05-12T08:22:26.451Z,26.14
2023-05-12T08:23:30.372Z,26.24
2023-05-12T08:24:32.568Z,26.31
2023-05-12T08:25:36.820Z,26.67
2023-05-12T08:26:42.213Z,26.76
2023-05-12T08:27:44.099Z,26.75
2023-05-12T08:28:48.991Z,26.36
2023-05-12T08:29:49.077Z,26.58
2023-05-12T08:30:56.512Z,26.81
2023-05-12T08:32:00.996Z,26.98
2023-05-12T08:33:07.783Z,27.33
2023-05-12T08:34:10.918Z,27.28
2023-05-12T08:35:06.745Z,26.86
2023-05-12T08:36:08.652Z,27.20
2023-05-12T08:37:09.170Z,27.55
2023-05-12T08:38:17.449Z,27.79
2023-05-12T08:39:14.350Z,27.44
2023-05-12T08:40:20.845Z,27.35
2023-05-12T08:41:20.212Z,27.49
2023-05-12T08:42:28.125Z,27.73
2023-05-12T08:43:32.684Z,27.89
2023-05-12T08:44:39.464Z,28.14
2023-05-12T08:45:36.285Z,28.16
2023-05-12T08:46:38.814Z,27.92
2023-05-12T08:47:43.701Z,28.11
2023-05-12T08:48:48.449Z,28.47
2023-05-12T08:49:52.380Z,28.70
2023-05-12T08:50:56.922Z,29.04
2023-05-12T08:51:58.274Z,29.06
2023-05-12T08:52:57.421Z,29.37
2023-05-12T08:53:59.952Z,29.66
2023-05-12T08:55:04.490Z,29.83
2023-05-12T08:57:10.407Z,30.06
2023-05-12T08:58:11.064Z,30.32
2023-05-12T08:59:18.444Z,30.51
2023-05-12T09:00:23.040Z,30.74
2023-05-12T09:01:26.661Z,30.73
2023-05-12T09:02:44.989Z,30.38
2023-05-12T09:03:36.020Z,29.85
2023-05-12T09:04:34.286Z,29.78
2023-05-12T09:05:39.037Z,29.78
2023-05-12T09:06:40.581Z,30.21
2023-05-12T09:07:47.628Z,30.41
2023-05-12T09:08:51.963Z,30.48
2023-05-12T09:09:59.874Z,29.96
2023-05-12T09:10:58.938Z,29.76
2023-05-12T09:13:14.800Z,29.46
2023-05-12T09:14:13.934Z,29.66
2023-05-12T09:15:16.230Z,29.17
2023-05-12T09:16:23.687Z,28.99
2023-05-12T09:17:28.637Z,28.99
2023-05-12T09:18:32.183Z,29.28
2023-05-12T09:19:36.776Z,29.62
2023-05-12T09:20:41.120Z,29.13
2023-05-12T09:21:45.460Z,29.62
2023-05-12T09:22:49.521Z,29.85
2023-05-12T09:23:54.115Z,29.81
2023-05-12T09:24:58.204Z,29.96
2023-05-12T09:26:03.191Z,29.59
2023-05-12T09:27:07.156Z,29.44
2023-05-12T09:28:10.456Z,30.04
2023-05-12T09:29:27.923Z,30.39
2023-05-12T09:30:20.005Z,30.64
2023-05-12T09:31:24.330Z,30.91
2023-05-12T09:32:28.933Z,30.60
2023-05-12T09:33:33.190Z,30.31
2023-05-12T09:34:37.538Z,29.80
2023-05-12T09:35:41.904Z,28.87
2023-05-12T09:36:45.946Z,28.15
2023-05-12T09:37:50.280Z,27.91
2023-05-12T09:38:54.882Z,27.38
2023-05-12T09:39:58.948Z,26.94
2023-05-12T09:41:03.297Z,26.46
2023-05-12T09:42:07.620Z,26.22
2023-05-12T09:43:07.999Z,25.99
2023-05-12T09:44:12.087Z,25.16
2023-05-12T09:45:16.710Z,24.78
2023-05-12T09:46:21.109Z,24.79
2023-05-12T09:47:25.430Z,24.85
2023-05-12T09:48:29.485Z,24.70
2023-05-12T09:49:34.094Z,24.79
2023-05-12T09:50:47.435Z,24.97
2023-05-12T09:51:42.539Z,24.74
2023-05-12T09:52:47.338Z,24.48
2023-05-12T09:53:51.423Z,24.52
2023-05-12T09:54:56.260Z,24.28
2023-05-12T09:55:57.735Z,24.61
2023-05-12T09:57:04.842Z,24.98
2023-05-12T09:58:09.471Z,25.52
2023-05-12T09:59:13.480Z,25.21
2023-05-12T10:00:33.252Z,25.85
2023-05-12T10:01:23.770Z,24.96
2023-05-12T10:02:26.828Z,24.38
2023-05-12T10:03:31.063Z,24.64
2023-05-12T10:04:35.684Z,23.24
2023-05-12T10:05:39.726Z,22.93
2023-05-12T10:06:44.044Z,22.52
2023-05-12T10:07:45.963Z,22.53
2023-05-12T10:08:53.331Z,22.55
2023-05-12T10:09:57.635Z,23.16
2023-05-12T10:11:01.968Z,23.86
2023-05-12T10:12:06.033Z,23.88
2023-05-12T10:13:06.402Z,24.34
2023-05-12T10:14:10.766Z,25.27
2023-05-12T10:15:15.050Z,25.71
2023-05-12T10:16:19.664Z,24.66
2023-05-12T10:17:23.474Z,24.92
2023-05-12T10:18:27.823Z,24.76
2023-05-12T10:19:32.148Z,25.08
2023-05-12T10:20:36.473Z,25.05
2023-05-12T10:21:40.810Z,25.01
2023-05-12T10:22:45.146Z,25.98
2023-05-12T10:23:49.474Z,25.63
2023-05-12T10:24:54.069Z,25.46
2023-05-12T10:25:58.156Z,25.52
2023-05-12T10:27:02.760Z,25.08
2023-05-12T10:28:07.103Z,25.61
2023-05-12T10:29:11.180Z,25.56
2023-05-12T10:30:15.886Z,25.77
2023-05-12T10:31:20.155Z,25.85
2023-05-12T10:32:24.535Z,26.36
2023-05-12T10:33:29.077Z,26.95
2023-05-12T10:34:33.168Z,27.32
2023-05-12T10:35:36.754Z,27.45
2023-05-12T10:36:39.562Z,27.46
2023-05-12T10:37:44.095Z,26.89
2023-05-12T10:38:45.309Z,26.51
2023-05-12T10:39:52.942Z,27.12
2023-05-12T10:40:54.401Z,27.33
2023-05-12T10:42:01.494Z,26.46
2023-05-12T10:43:00.926Z,26.19
2023-05-12T10:44:06.000Z,26.11
2023-05-12T10:45:10.630Z,25.39
2023-05-12T10:46:15.496Z,25.38
2023-05-12T10:47:19.580Z,25.42
2023-05-12T10:48:23.707Z,25.57
2023-05-12T10:49:28.033Z,25.94
2023-05-12T10:50:32.143Z,25.85
2023-05-12T10:51:37.181Z,25.14
2023-05-12T10:52:40.291Z,25.10
2023-05-12T10:53:50.173Z,25.45
2023-05-12T10:54:44.178Z,25.58
2023-05-12T10:55:47.233Z,25.88
2023-05-12T10:56:51.371Z,26.03
2023-05-12T10:57:55.582Z,26.33
2023-05-12T10:59:00.144Z,25.97
2023-05-12T11:00:05.057Z,26.20
2023-05-12T11:01:09.277Z,25.81
2023-05-12T11:02:13.606Z,26.42
2023-05-12T11:03:18.543Z,26.91
2023-05-12T11:04:21.812Z,27.01
2023-05-12T11:05:27.159Z,26.77
2023-05-12T11:06:30.769Z,26.33
2023-05-12T11:07:35.254Z,26.38
2023-05-12T11:08:37.938Z,26.41
2023-05-12T11:09:40.473Z,26.72
2023-05-12T11:10:36.921Z,26.89
2023-05-12T11:11:48.606Z,26.40
2023-05-12T11:12:52.367Z,26.70
2023-05-12T11:13:50.009Z,27.25
2023-05-12T11:14:52.331Z,27.48
2023-05-12T11:15:54.262Z,27.67
2023-05-12T11:17:01.754Z,26.86
2023-05-12T11:18:03.606Z,26.59
2023-05-12T11:19:08.470Z,25.76
2023-05-12T11:20:16.598Z,26.44
2023-05-12T11:21:23.948Z,26.87
2023-05-12T11:22:18.425Z,26.75
2023-05-12T11:23:18.675Z,26.73
2023-05-12T11:24:21.112Z,26.88
2023-05-12T11:25:26.248Z,27.19
2023-05-12T11:26:32.052Z,26.70
2023-05-12T11:27:32.237Z,26.77
2023-05-12T11:28:34.124Z,26.47
2023-05-12T11:29:36.203Z,26.13
2023-05-12T11:30:39.756Z,26.02
2023-05-12T11:31:40.064Z,25.85
2023-05-12T11:32:45.104Z,25.93
2023-05-12T11:34:01.305Z,25.95
2023-05-12T11:34:53.950Z,26.17
2023-05-12T11:35:59.752Z,26.24
2023-05-12T11:36:59.433Z,26.15
2023-05-12T11:37:59.727Z,26.32
2023-05-12T11:39:01.750Z,26.36
2023-05-12T11:40:05.339Z,26.29
2023-05-12T11:41:04.204Z,26.54
2023-05-12T11:42:12.887Z,26.78
2023-05-12T11:43:09.809Z,26.28
2023-05-12T11:44:12.259Z,26.11
2023-05-12T11:45:16.849Z,26.08
2023-05-12T11:46:20.995Z,25.45
2023-05-12T11:47:22.958Z,25.78
2023-05-12T11:48:31.021Z,25.55
2023-05-12T11:49:35.021Z,25.23
2023-05-12T11:50:41.418Z,25.37
2023-05-12T11:51:39.545Z,25.65
2023-05-12T11:52:41.455Z,25.82
2023-05-12T11:53:41.608Z,25.37
2023-05-12T11:54:52.426Z,25.46
2023-05-12T11:55:48.857Z,25.81
2023-05-12T11:56:55.937Z,26.11
2023-05-12T11:58:00.277Z,26.13
2023-05-12T11:59:04.889Z,26.07
2023-05-12T12:00:11.461Z,25.66
2023-05-12T12:01:06.852Z,25.74
2023-05-12T12:02:16.550Z,25.54
2023-05-12T12:03:13.050Z,24.78
2023-05-12T12:04:15.132Z,24.67
2023-05-12T12:05:17.189Z,24.70
2023-05-12T12:06:22.004Z,24.64
2023-05-12T12:07:29.366Z,24.32
2023-05-12T12:08:31.124Z,24.39
2023-05-12T12:09:35.979Z,24.33
2023-05-12T12:10:40.906Z,24.11
2023-05-12T12:11:45.792Z,24.10
2023-05-12T12:12:46.859Z,24.12
2023-05-12T12:13:53.733Z,24.16
2023-05-12T12:14:56.420Z,23.69
2023-05-12T12:16:01.016Z,23.32
2023-05-12T12:17:02.706Z,23.72
2023-05-12T12:18:10.089Z,23.74
2023-05-12T12:19:11.945Z,23.67
2023-05-12T12:20:23.283Z,23.67
2023-05-12T12:21:20.429Z,23.09
2023-05-12T12:22:24.806Z,23.09
2023-05-12T12:23:26.477Z,23.20
2023-05-12T12:24:31.377Z,23.33
2023-05-12T12:25:38.540Z,23.27
2023-05-12T12:26:43.144Z,23.21
2023-05-12T12:27:47.700Z,23.54
2023-05-12T12:28:50.417Z,23.31
2023-05-12T12:29:55.205Z,23.33
2023-05-12T12:30:56.693Z,23.12
2023-05-12T12:32:03.959Z,23.09
2023-05-12T12:33:08.765Z,22.99
2023-05-12T12:34:13.106Z,23.04
2023-05-12T12:35:14.829Z,22.94
2023-05-12T12:36:18.662Z,22.91
2023-05-12T12:37:21.778Z,22.95
2023-05-12T12:38:21.436Z,22.98
2023-05-12T12:39:26.163Z,23.00
2023-05-12T12:40:33.714Z,23.15
2023-05-12T12:41:38.274Z,23.00
2023-05-12T12:42:35.740Z,23.10
2023-05-12T12:43:47.167Z,23.33
2023-05-12T12:44:46.632Z,23.60
2023-05-12T12:45:46.857Z,23.76
2023-05-12T12:46:49.444Z,23.41
2023-05-12T12:47:51.107Z,23.56
2023-05-12T12:48:56.040Z,23.54
2023-05-12T12:50:04.400Z,23.58
2023-05-12T12:51:01.119Z,23.56
2023-05-12T12:52:08.946Z,23.63
2023-05-12T12:53:12.739Z,23.28
2023-05-12T12:54:14.853Z,23.30
2023-05-12T12:55:21.212Z,23.10
2023-05-12T12:56:24.375Z,23.34
2023-05-12T12:57:24.965Z,23.53
2023-05-12T12:58:29.968Z,23.48
2023-05-12T12:59:38.200Z,23.54
2023-05-12T13:00:39.850Z,23.73
2023-05-12T13:01:35.502Z,23.30
2023-05-12T13:02:35.200Z,23.42
2023-05-12T13:03:40.233Z,23.52
2023-05-12T13:04:43.638Z,23.54
2023-05-12T13:05:43.878Z,23.56
2023-05-12T13:06:44.136Z,23.54
2023-05-12T13:07:44.422Z,23.36
2023-05-12T13:08:46.625Z,23.52
2023-05-12T13:09:48.886Z,23.56
2023-05-12T13:10:51.212Z,23.61
2023-05-12T13:11:53.107Z,23.58
2023-05-12T13:12:57.355Z,23.40
2023-05-12T13:14:04.775Z,23.40
2023-05-12T13:15:06.610Z,23.31
2023-05-12T13:16:06.875Z,23.50
2023-05-12T13:17:11.908Z,23.66
2023-05-12T13:18:20.444Z,23.86
2023-05-12T13:19:23.030Z,23.68
2023-05-12T13:20:25.834Z,23.52
2023-05-12T13:21:27.372Z,23.88
2023-05-12T13:22:32.297Z,24.01
2023-05-12T13:23:35.660Z,24.22
2023-05-12T13:24:36.109Z,24.70
2023-05-12T13:25:41.361Z,24.98
2023-05-12T13:26:43.155Z,25.12
2023-05-12T13:27:43.891Z,24.94
2023-05-12T13:28:49.011Z,24.82
2023-05-12T13:29:44.395Z,24.90
2023-05-12T13:30:49.149Z,24.45
2023-05-12T13:31:54.206Z,24.14
2023-05-12T13:33:00.670Z,24.43
2023-05-12T13:34:00.900Z,24.84
2023-05-12T13:35:08.247Z,25.13
2023-05-12T13:36:10.346Z,25.34
2023-05-12T13:37:17.908Z,25.52
2023-05-12T13:38:19.601Z,25.59
2023-05-12T13:39:22.332Z,25.66
2023-05-12T13:40:24.205Z,25.94
2023-05-12T13:41:25.898Z,25.90
2023-05-12T13:42:32.385Z,25.85